Time;durP1;ratioP1;P1;durP2;ratioP2;P2;SDS_P1;SDS_P2;PMS_P1;PMS_P2;Temp;Humidity;BMP_temperature;BMP_pressure;BME280_temperature;BME280_humidity;BME280_pressure;Samples;Min_cycle;Max_cycle;Signal;HPM_P1;HPM_P2
2023/10/20 00:01:04;;;;;;;7.87;5.17;;;;;;;;;;4379890;32;324427;-90
2023/10/20 00:03:31;;;;;;;7.47;5.73;;;;;;;;;;4373503;32;318773;-84
2023/10/20 00:05:59;;;;;;;8.90;4.13;;;;;;;;;;4382084;32;317088;-83
2023/10/20 00:08:27;;;;;;;6.33;4.50;;;;;;;;;;4383536;32;316886;-84
2023/10/20 00:11:04;;;;;;;5.33;4.27;;;;;;;;;;4371380;32;316955;-91
2023/10/20 00:13:33;;;;;;;7.00;4.73;;;;;;;;;;4370175;32;386862;-91
2023/10/20 00:16:00;;;;;;;8.53;5.50;;;;;;;;;;4383621;32;316873;-87
2023/10/20 00:18:51;;;;;;;10.73;6.03;;;;;;;;;;4383471;32;316879;-88
2023/10/20 00:21:19;;;;;;;8.03;5.90;;;;;;;;;;4368964;32;417170;-82
2023/10/20 00:23:46;;;;;;;10.93;6.23;;;;;;;;;;4371183;32;316786;-82
2023/10/20 00:26:15;;;;;;;8.03;5.83;;;;;;;;;;4381919;32;317974;-82
2023/10/20 00:28:43;;;;;;;10.27;5.57;;;;;;;;;;4366662;32;352712;-83
2023/10/20 00:31:11;;;;;;;11.47;6.73;;;;;;;;;;4382325;32;318142;-85
2023/10/20 00:33:39;;;;;;;7.83;5.53;;;;;;;;;;4370305;32;318146;-83
2023/10/20 00:36:08;;;;;;;7.50;5.50;;;;;;;;;;4383808;32;317084;-82
2023/10/20 00:38:35;;;;;;;9.93;6.30;;;;;;;;;;4368992;32;316866;-82
2023/10/20 00:41:03;;;;;;;10.07;6.20;;;;;;;;;;4378279;32;316935;-83
2023/10/20 00:43:39;;;;;;;11.10;7.20;;;;;;;;;;4373210;32;318163;-82
2023/10/20 00:46:08;;;;;;;12.20;7.57;;;;;;;;;;4382148;32;318051;-83
2023/10/20 00:48:36;;;;;;;12.30;7.47;;;;;;;;;;4369425;32;317825;-83
2023/10/20 00:51:06;;;;;;;10.83;7.73;;;;;;;;;;4378565;32;317937;-83
2023/10/20 00:53:35;;;;;;;19.87;7.97;;;;;;;;;;4372214;32;318084;-83
2023/10/20 00:56:04;;;;;;;14.53;8.30;;;;;;;;;;4383236;32;318119;-87
2023/10/20 00:58:32;;;;;;;9.87;7.70;;;;;;;;;;4371457;32;318132;-86
2023/10/20 01:01:03;;;;;;;13.33;7.83;;;;;;;;;;4380202;32;317344;-83
2023/10/20 01:03:32;;;;;;;10.73;7.97;;;;;;;;;;4369915;32;318260;-84
2023/10/20 01:06:02;;;;;;;10.43;8.13;;;;;;;;;;4382670;32;318423;-91
2023/10/20 01:08:30;;;;;;;12.23;7.60;;;;;;;;;;4381768;32;317850;-88
2023/10/20 01:10:57;;;;;;;10.00;7.73;;;;;;;;;;4365451;32;417568;-83
2023/10/20 01:13:25;;;;;;;12.50;8.03;;;;;;;;;;4382806;32;318117;-83
2023/10/20 01:15:53;;;;;;;16.73;8.90;;;;;;;;;;4371437;32;317771;-82
2023/10/20 01:18:22;;;;;;;12.93;7.57;;;;;;;;;;4382337;32;317992;-82
2023/10/20 01:20:50;;;;;;;11.30;7.73;;;;;;;;;;4368216;32;317912;-82
2023/10/20 01:23:17;;;;;;;14.93;8.43;;;;;;;;;;4382922;32;318316;-82
2023/10/20 01:25:46;;;;;;;10.33;6.93;;;;;;;;;;4385870;32;317921;-84
2023/10/20 01:28:13;;;;;;;9.57;8.00;;;;;;;;;;4397859;32;316642;-84
2023/10/20 01:30:41;;;;;;;8.60;6.90;;;;;;;;;;4385682;32;355163;-86
2023/10/20 01:33:08;;;;;;;19.73;7.17;;;;;;;;;;4430575;27;315491;-94
2023/10/20 01:35:36;;;;;;;14.93;7.30;;;;;;;;;;4391119;32;346308;-91
2023/10/20 01:38:03;;;;;;;16.30;8.73;;;;;;;;;;4398068;32;318004;-94
2023/10/20 01:40:31;;;;;;;17.63;8.33;;;;;;;;;;4382878;32;318007;-86
2023/10/20 01:43:00;;;;;;;10.83;8.20;;;;;;;;;;4391298;32;318038;-90
2023/10/20 01:45:28;;;;;;;11.50;7.60;;;;;;;;;;4396859;32;318008;-89
2023/10/20 01:47:56;;;;;;;13.87;8.53;;;;;;;;;;4382906;32;417242;-92
2023/10/20 01:50:26;;;;;;;10.83;8.30;;;;;;;;;;4396244;32;318111;-93
2023/10/20 01:52:54;;;;;;;11.90;7.87;;;;;;;;;;4384114;32;318149;-92
2023/10/20 01:55:21;;;;;;;14.63;7.40;;;;;;;;;;4386558;32;317979;-91
2023/10/20 01:57:48;;;;;;;10.57;7.33;;;;;;;;;;4370836;32;318046;-92
2023/10/20 02:00:18;;;;;;;8.93;6.90;;;;;;;;;;4382088;32;320278;-90
2023/10/20 02:02:45;;;;;;;11.20;6.87;;;;;;;;;;4367620;32;317115;-83
2023/10/20 02:05:13;;;;;;;15.30;7.03;;;;;;;;;;4382642;32;318230;-92
2023/10/20 02:07:41;;;;;;;14.87;7.23;;;;;;;;;;4370218;32;318060;-85
2023/10/20 02:10:09;;;;;;;13.60;7.33;;;;;;;;;;4383425;32;318173;-83
2023/10/20 02:12:36;;;;;;;11.30;7.60;;;;;;;;;;4369903;32;317933;-85
2023/10/20 02:15:04;;;;;;;7.97;6.80;;;;;;;;;;4382807;32;317879;-83
2023/10/20 02:17:33;;;;;;;16.27;7.00;;;;;;;;;;4374635;32;317002;-83
2023/10/20 02:20:00;;;;;;;15.00;7.53;;;;;;;;;;4384818;32;317830;-83
2023/10/20 02:22:28;;;;;;;9.97;7.00;;;;;;;;;;4385238;32;317927;-83
2023/10/20 02:24:55;;;;;;;9.13;6.50;;;;;;;;;;4367555;32;416074;-84
2023/10/20 02:27:22;;;;;;;10.47;7.27;;;;;;;;;;4384742;32;316903;-82
2023/10/20 02:29:50;;;;;;;10.98;6.60;;;;;;;;;;4373899;32;318076;-83
2023/10/20 02:32:17;;;;;;;8.33;6.67;;;;;;;;;;4383396;32;317974;-82
2023/10/20 02:34:46;;;;;;;7.83;5.80;;;;;;;;;;4371990;32;316717;-84
2023/10/20 02:37:14;;;;;;;13.03;7.20;;;;;;;;;;4384036;32;316964;-84
2023/10/20 02:39:42;;;;;;;13.23;7.30;;;;;;;;;;4374516;32;317738;-82
2023/10/20 02:42:09;;;;;;;10.23;7.63;;;;;;;;;;4384661;32;317844;-85
2023/10/20 02:44:38;;;;;;;17.63;7.80;;;;;;;;;;4373933;32;317956;-82
2023/10/20 02:47:06;;;;;;;12.90;7.23;;;;;;;;;;4383784;32;317825;-85
2023/10/20 02:49:33;;;;;;;14.17;9.00;;;;;;;;;;4372975;32;318046;-82
2023/10/20 02:52:02;;;;;;;12.13;7.57;;;;;;;;;;4384146;32;318012;-86
2023/10/20 02:54:29;;;;;;;12.73;8.50;;;;;;;;;;4383472;32;317959;-88
2023/10/20 02:56:57;;;;;;;13.63;8.30;;;;;;;;;;4368855;32;417993;-90
2023/10/20 02:59:24;;;;;;;17.93;7.57;;;;;;;;;;4382632;32;317798;-84
2023/10/20 03:01:54;;;;;;;11.03;7.63;;;;;;;;;;4371599;32;317958;-82
2023/10/20 03:04:21;;;;;;;10.63;7.20;;;;;;;;;;4383874;32;317849;-85
2023/10/20 03:06:48;;;;;;;10.00;7.17;;;;;;;;;;4370544;32;318105;-84
2023/10/20 03:09:18;;;;;;;22.03;7.50;;;;;;;;;;4370922;32;318001;-84
2023/10/20 03:11:45;;;;;;;15.33;8.57;;;;;;;;;;4372246;32;318091;-83
2023/10/20 03:14:13;;;;;;;11.73;7.73;;;;;;;;;;4384814;32;317685;-83
2023/10/20 03:16:43;;;;;;;15.80;7.67;;;;;;;;;;4371350;32;317946;-83
2023/10/20 03:19:11;;;;;;;10.90;7.00;;;;;;;;;;4385196;32;317792;-84
2023/10/20 03:21:39;;;;;;;11.50;7.33;;;;;;;;;;4373551;32;318218;-84
2023/10/20 03:24:08;;;;;;;10.47;7.33;;;;;;;;;;4384066;32;317762;-83
2023/10/20 03:26:37;;;;;;;11.30;8.67;;;;;;;;;;4373220;32;317870;-83
2023/10/20 03:29:04;;;;;;;23.07;14.17;;;;;;;;;;4381717;32;318008;-83
2023/10/20 03:31:32;;;;;;;15.17;10.77;;;;;;;;;;4373081;32;319283;-84
2023/10/20 03:33:59;;;;;;;12.73;8.57;;;;;;;;;;4383895;32;319013;-85
2023/10/20 03:36:27;;;;;;;11.27;8.30;;;;;;;;;;4384806;32;317847;-83
2023/10/20 03:38:56;;;;;;;13.33;8.17;;;;;;;;;;4368859;32;317973;-81
2023/10/20 03:41:25;;;;;;;14.90;9.03;;;;;;;;;;4384711;32;317866;-84
2023/10/20 03:43:53;;;;;;;12.27;8.67;;;;;;;;;;4370448;32;356695;-84
2023/10/20 03:46:21;;;;;;;12.33;8.40;;;;;;;;;;4384126;32;317797;-84
2023/10/20 03:48:48;;;;;;;12.50;8.67;;;;;;;;;;4367667;32;317753;-85
2023/10/20 03:51:16;;;;;;;14.97;8.60;;;;;;;;;;4382906;32;317909;-85
2023/10/20 03:53:50;;;;;;;15.43;9.73;;;;;;;;;;4373474;32;317919;-82
2023/10/20 03:56:19;;;;;;;15.77;9.83;;;;;;;;;;4383398;32;317987;-82
2023/10/20 03:58:47;;;;;;;17.20;9.90;;;;;;;;;;4370053;32;317931;-82
2023/10/20 04:01:16;;;;;;;16.57;9.50;;;;;;;;;;4382431;32;317945;-82
2023/10/20 04:03:49;;;;;;;16.63;10.87;;;;;;;;;;4369607;32;318107;-84
2023/10/20 04:06:16;;;;;;;16.93;9.73;;;;;;;;;;4382430;32;318712;-92
2023/10/20 04:08:44;;;;;;;17.63;10.03;;;;;;;;;;4370765;32;318034;-84
2023/10/20 04:11:12;;;;;;;18.50;9.97;;;;;;;;;;4382683;32;318926;-89
2023/10/20 04:13:39;;;;;;;16.17;10.93;;;;;;;;;;4372620;32;317840;-88
2023/10/20 04:16:12;;;;;;;16.23;11.10;;;;;;;;;;4383084;32;318853;-84
2023/10/20 04:18:41;;;;;;;14.73;11.03;;;;;;;;;;4371483;32;318558;-84
2023/10/20 04:21:11;;;;;;;16.53;10.03;;;;;;;;;;4382223;32;318791;-84
2023/10/20 04:23:38;;;;;;;20.10;10.43;;;;;;;;;;4371645;32;318954;-82
2023/10/20 04:26:15;;;;;;;20.77;10.80;;;;;;;;;;4383967;32;318744;-86
2023/10/20 04:28:44;;;;;;;22.17;12.00;;;;;;;;;;4369757;32;318818;-84
2023/10/20 04:53:32;;;;;;;25.97;13.33;;;;;;;;;;4346465;32;389833;-92
2023/10/20 04:58:54;;;;;;;30.73;13.30;;;;;;;;;;4368699;32;318776;-85
2023/10/20 05:01:26;;;;;;;22.73;14.40;;;;;;;;;;4382110;32;318928;-84
2023/10/20 05:03:57;;;;;;;31.47;13.27;;;;;;;;;;4371887;32;318928;-85
2023/10/20 05:06:31;;;;;;;21.27;13.20;;;;;;;;;;4380666;32;318846;-89
2023/10/20 05:08:58;;;;;;;16.90;12.60;;;;;;;;;;4367986;32;390758;-85
2023/10/20 05:11:26;;;;;;;30.67;13.77;;;;;;;;;;4381869;32;319116;-86
2023/10/20 05:13:53;;;;;;;24.13;13.80;;;;;;;;;;4371965;32;319051;-84
2023/10/20 05:16:22;;;;;;;37.07;17.20;;;;;;;;;;4381695;32;318932;-92
2023/10/20 05:18:50;;;;;;;43.10;23.40;;;;;;;;;;4366965;32;318779;-92
2023/10/20 05:21:18;;;;;;;48.77;26.97;;;;;;;;;;4381659;32;318907;-84
2023/10/20 05:23:47;;;;;;;54.60;30.07;;;;;;;;;;4371170;32;318818;-88
2023/10/20 05:26:16;;;;;;;55.40;36.07;;;;;;;;;;4381735;32;318865;-86
2023/10/20 05:28:43;;;;;;;51.63;35.27;;;;;;;;;;4369507;32;318691;-91
2023/10/20 05:31:11;;;;;;;58.30;37.43;;;;;;;;;;4382151;32;318948;-85
2023/10/20 05:33:39;;;;;;;44.00;27.10;;;;;;;;;;4371608;32;319133;-92
2023/10/20 05:36:08;;;;;;;32.50;21.70;;;;;;;;;;4390537;32;319198;-83
2023/10/20 05:38:35;;;;;;;34.47;14.87;;;;;;;;;;4388118;32;318741;-85
2023/10/20 05:41:18;;;;;;;31.07;16.73;;;;;;;;;;4438954;27;317650;-94
2023/10/20 05:43:46;;;;;;;25.43;13.70;;;;;;;;;;4393664;32;318803;-93
2023/10/20 05:46:17;;;;;;;26.60;15.13;;;;;;;;;;4402829;32;318977;-88
2023/10/20 05:48:46;;;;;;;27.00;13.67;;;;;;;;;;4387656;32;319013;-88
2023/10/20 05:51:14;;;;;;;32.30;15.53;;;;;;;;;;4400174;32;318825;-84
2023/10/20 05:53:42;;;;;;;28.33;14.00;;;;;;;;;;4385524;32;319052;-84
2023/10/20 05:56:09;;;;;;;19.30;12.70;;;;;;;;;;4385106;32;319053;-84
2023/10/20 05:58:38;;;;;;;23.70;14.27;;;;;;;;;;4372941;32;318971;-83
2023/10/20 06:01:06;;;;;;;27.60;15.33;;;;;;;;;;4381790;32;350521;-86
2023/10/20 06:03:34;;;;;;;28.23;14.30;;;;;;;;;;4373896;32;318822;-86
2023/10/20 06:06:03;;;;;;;23.63;15.47;;;;;;;;;;4385430;32;318748;-86
2023/10/20 06:08:31;;;;;;;32.63;14.30;;;;;;;;;;4376945;32;318936;-85
2023/10/20 06:11:03;;;;;;;35.97;18.63;;;;;;;;;;4381733;32;319118;-83
2023/10/20 06:13:32;;;;;;;40.23;17.87;;;;;;;;;;4384899;32;318939;-82
2023/10/20 06:16:08;;;;;;;32.67;15.93;;;;;;;;;;4371250;32;418329;-83
2023/10/20 06:18:36;;;;;;;24.73;14.27;;;;;;;;;;4371984;32;319176;-85
2023/10/20 06:21:04;;;;;;;25.60;14.20;;;;;;;;;;4381790;32;354512;-83
2023/10/20 06:23:32;;;;;;;24.07;13.37;;;;;;;;;;4372586;32;318930;-80
2023/10/20 06:25:59;;;;;;;39.70;14.33;;;;;;;;;;4384961;32;318952;-95
2023/10/20 06:28:27;;;;;;;24.93;13.27;;;;;;;;;;4384207;32;318988;-92
2023/10/20 06:30:57;;;;;;;27.23;13.83;;;;;;;;;;4370750;32;353465;-86
2023/10/20 06:33:32;;;;;;;21.67;12.93;;;;;;;;;;4384365;32;318714;-92
2023/10/20 06:36:05;;;;;;;22.77;13.67;;;;;;;;;;4369996;32;418457;-79
2023/10/20 06:38:36;;;;;;;27.20;12.83;;;;;;;;;;4372144;32;319117;-79
2023/10/20 06:41:04;;;;;;;19.43;13.47;;;;;;;;;;4381305;32;318961;-78
2023/10/20 06:43:31;;;;;;;16.77;11.23;;;;;;;;;;4371085;32;384039;-80
2023/10/20 06:46:00;;;;;;;24.17;12.50;;;;;;;;;;4383964;32;319207;-80
2023/10/20 06:48:30;;;;;;;25.03;11.53;;;;;;;;;;4385022;32;319123;-82
2023/10/20 06:50:58;;;;;;;21.27;10.57;;;;;;;;;;4366138;32;418682;-91
2023/10/20 06:53:26;;;;;;;12.40;8.87;;;;;;;;;;4382746;32;318850;-88
2023/10/20 06:55:53;;;;;;;16.17;10.37;;;;;;;;;;4372427;32;329778;-79
2023/10/20 06:58:21;;;;;;;19.20;11.80;;;;;;;;;;4383403;32;318750;-85
2023/10/20 07:00:48;;;;;;;28.90;14.83;;;;;;;;;;4370390;32;318919;-79
2023/10/20 07:03:15;;;;;;;27.37;13.80;;;;;;;;;;4383550;32;318846;-77
2023/10/20 07:05:47;;;;;;;27.47;16.50;;;;;;;;;;4371843;32;319055;-93
2023/10/20 07:08:14;;;;;;;37.63;19.07;;;;;;;;;;4368845;32;319290;-83
2023/10/20 07:10:42;;;;;;;32.47;19.87;;;;;;;;;;4369531;32;319220;-80
2023/10/20 07:13:11;;;;;;;26.93;19.00;;;;;;;;;;4383393;32;318478;-93
2023/10/20 07:15:40;;;;;;;30.70;18.93;;;;;;;;;;4372117;32;319010;-89
2023/10/20 07:18:08;;;;;;;29.40;18.23;;;;;;;;;;4383428;32;318722;-80
2023/10/20 07:20:38;;;;;;;24.33;18.00;;;;;;;;;;4371438;32;322026;-83
2023/10/20 07:23:07;;;;;;;22.63;15.13;;;;;;;;;;4381486;32;349188;-81
2023/10/20 07:25:35;;;;;;;22.57;13.73;;;;;;;;;;4370715;32;319037;-83
2023/10/20 07:28:03;;;;;;;20.67;13.53;;;;;;;;;;4384102;32;318947;-87
2023/10/20 07:30:31;;;;;;;23.33;13.43;;;;;;;;;;4382630;32;352379;-81
2023/10/20 07:32:58;;;;;;;20.27;13.90;;;;;;;;;;4367028;32;417775;-90
2023/10/20 07:35:26;;;;;;;29.20;16.03;;;;;;;;;;4383079;32;318875;-84
2023/10/20 07:37:53;;;;;;;25.07;15.00;;;;;;;;;;4352198;32;318765;-89
2023/10/20 07:40:26;;;;;;;26.83;14.70;;;;;;;;;;4381231;32;318765;-88
2023/10/20 07:42:54;;;;;;;19.30;14.03;;;;;;;;;;4368419;32;326050;-80
2023/10/20 07:45:21;;;;;;;21.27;13.53;;;;;;;;;;4381857;32;318701;-84
2023/10/20 07:47:49;;;;;;;18.30;13.30;;;;;;;;;;4370558;32;318957;-86
2023/10/20 07:50:17;;;;;;;16.50;11.90;;;;;;;;;;4382671;32;319145;-82
2023/10/20 07:52:45;;;;;;;17.80;12.07;;;;;;;;;;4366946;32;318846;-80
2023/10/20 07:55:12;;;;;;;16.17;10.55;;;;;;;;;;4383919;32;318991;-86
2023/10/20 07:57:41;;;;;;;14.23;8.57;;;;;;;;;;4372918;32;318895;-87
2023/10/20 08:00:13;;;;;;;18.93;9.37;;;;;;;;;;4381445;32;317945;-82
2023/10/20 08:02:41;;;;;;;16.80;9.20;;;;;;;;;;4371672;32;318021;-83
2023/10/20 08:05:10;;;;;;;13.70;9.90;;;;;;;;;;4382145;32;317629;-80
2023/10/20 08:07:42;;;;;;;16.70;8.97;;;;;;;;;;4370216;32;317766;-83
2023/10/20 08:10:10;;;;;;;16.50;9.53;;;;;;;;;;4382763;32;317792;-81
2023/10/20 08:12:37;;;;;;;16.40;9.67;;;;;;;;;;4372635;32;317790;-85
2023/10/20 08:15:08;;;;;;;14.70;8.60;;;;;;;;;;4380003;32;317895;-87
2023/10/20 08:17:36;;;;;;;13.47;8.20;;;;;;;;;;4372784;32;317879;-80
2023/10/20 08:20:07;;;;;;;14.97;7.83;;;;;;;;;;4382521;32;318394;-79
2023/10/20 08:22:34;;;;;;;20.80;8.23;;;;;;;;;;4369593;32;317938;-83
2023/10/20 08:25:02;;;;;;;17.33;8.57;;;;;;;;;;4378570;32;317984;-88
2023/10/20 08:27:30;;;;;;;19.53;9.23;;;;;;;;;;4382704;32;317834;-84
2023/10/20 08:29:57;;;;;;;9.50;7.10;;;;;;;;;;4369718;32;417067;-93
2023/10/20 08:32:26;;;;;;;10.10;5.87;;;;;;;;;;4381553;32;316864;-87
2023/10/20 08:34:54;;;;;;;9.65;6.35;;;;;;;;;;4354638;32;318101;-81
2023/10/20 08:37:21;;;;;;;10.68;8.23;;;;;;;;;;4382013;32;317122;-80
2023/10/20 08:39:49;;;;;;;12.13;7.25;;;;;;;;;;4371719;32;317825;-78
2023/10/20 08:42:17;;;;;;;14.30;7.18;;;;;;;;;;4381838;32;317922;-84
2023/10/20 08:44:46;;;;;;;24.05;11.15;;;;;;;;;;4367862;32;317751;-82
2023/10/20 08:47:14;;;;;;;9.38;7.25;;;;;;;;;;4382889;32;318892;-79
2023/10/20 08:49:45;;;;;;;12.07;5.47;;;;;;;;;;4370731;32;317616;-85
2023/10/20 08:52:13;;;;;;;15.80;5.03;;;;;;;;;;4380867;32;317972;-88
2023/10/20 08:54:41;;;;;;;6.80;4.95;;;;;;;;;;4366993;32;318069;-82
2023/10/20 08:57:09;;;;;;;8.63;4.65;;;;;;;;;;4381168;32;316948;-82
2023/10/20 08:59:36;;;;;;;10.98;5.60;;;;;;;;;;4370661;32;317018;-85
2023/10/20 09:02:05;;;;;;;12.45;6.30;;;;;;;;;;4381506;32;317823;-78
2023/10/20 09:04:32;;;;;;;11.90;5.90;;;;;;;;;;4372043;32;318022;-81
2023/10/20 09:07:03;;;;;;;11.50;4.55;;;;;;;;;;4378068;32;317896;-86
2023/10/20 09:09:30;;;;;;;15.45;5.12;;;;;;;;;;4382289;32;318297;-85
2023/10/20 09:11:57;;;;;;;13.75;5.50;;;;;;;;;;4368352;32;417476;-77
2023/10/20 09:14:27;;;;;;;12.15;5.85;;;;;;;;;;4381622;32;318023;-82
2023/10/20 09:16:57;;;;;;;8.70;4.53;;;;;;;;;;4345168;32;317953;-80
2023/10/20 09:19:24;;;;;;;12.05;5.03;;;;;;;;;;4382243;32;317024;-78
2023/10/20 09:21:57;;;;;;;12.13;4.75;;;;;;;;;;4361884;32;317963;-82
2023/10/20 09:24:30;;;;;;;6.37;4.65;;;;;;;;;;4381646;32;317952;-78
2023/10/20 09:27:02;;;;;;;7.62;4.35;;;;;;;;;;4367213;32;416469;-76
2023/10/20 09:29:32;;;;;;;13.30;4.55;;;;;;;;;;4389951;32;317281;-76
2023/10/20 09:32:02;;;;;;;11.15;4.10;;;;;;;;;;4363330;32;389646;-80
2023/10/20 09:34:30;;;;;;;15.38;4.00;;;;;;;;;;4386553;32;317830;-81
2023/10/20 09:37:00;;;;;;;9.82;3.67;;;;;;;;;;4366890;32;417260;-80
2023/10/20 09:39:37;;;;;;;10.35;4.32;;;;;;;;;;4387302;32;316991;-80
2023/10/20 09:42:07;;;;;;;7.60;4.12;;;;;;;;;;4373534;32;417316;-81
2023/10/20 09:44:40;;;;;;;18.27;4.85;;;;;;;;;;4377415;32;317066;-77
2023/10/20 09:47:19;;;;;;;8.90;4.32;;;;;;;;;;4388136;32;341954;-77
2023/10/20 09:49:47;;;;;;;12.77;4.15;;;;;;;;;;4374228;32;316600;-77
2023/10/20 09:52:15;;;;;;;13.85;4.05;;;;;;;;;;4387578;32;318026;-88
2023/10/20 09:54:45;;;;;;;11.33;3.03;;;;;;;;;;4378877;32;332661;-82
2023/10/20 09:57:14;;;;;;;10.45;3.65;;;;;;;;;;4392467;32;355954;-89
2023/10/20 09:59:42;;;;;;;10.93;4.80;;;;;;;;;;4368583;32;317785;-92
2023/10/20 10:02:10;;;;;;;20.52;4.45;;;;;;;;;;4380249;32;338649;-91
2023/10/20 10:04:39;;;;;;;9.77;3.97;;;;;;;;;;4369245;32;317828;-76
2023/10/20 10:07:07;;;;;;;16.73;4.55;;;;;;;;;;4380643;32;317269;-89
2023/10/20 10:09:38;;;;;;;12.02;3.90;;;;;;;;;;4371082;32;318017;-78
2023/10/20 10:12:14;;;;;;;5.50;3.22;;;;;;;;;;4382773;32;317915;-90
2023/10/20 10:14:41;;;;;;;13.40;3.70;;;;;;;;;;4367441;32;316959;-80
2023/10/20 10:17:10;;;;;;;8.73;3.12;;;;;;;;;;4380691;32;317867;-85
2023/10/20 10:19:50;;;;;;;7.93;3.43;;;;;;;;;;4368328;32;316821;-87
2023/10/20 10:22:18;;;;;;;6.80;3.12;;;;;;;;;;4381722;32;317046;-90
2023/10/20 10:24:50;;;;;;;13.57;3.62;;;;;;;;;;4368255;32;317044;-83
2023/10/20 10:27:22;;;;;;;10.20;3.40;;;;;;;;;;4381160;32;358210;-87
2023/10/20 10:29:53;;;;;;;12.37;3.17;;;;;;;;;;4371281;32;317629;-78
2023/10/20 10:32:21;;;;;;;10.45;3.60;;;;;;;;;;4384620;32;317965;-79
2023/10/20 10:34:51;;;;;;;12.10;4.03;;;;;;;;;;4370509;32;317883;-83
2023/10/20 10:37:28;;;;;;;13.95;3.60;;;;;;;;;;4384324;32;317974;-77
2023/10/20 10:40:07;;;;;;;7.03;3.33;;;;;;;;;;4368249;32;417282;-88
2023/10/20 10:42:39;;;;;;;13.40;3.42;;;;;;;;;;4373859;32;316987;-83
2023/10/20 10:45:21;;;;;;;12.98;3.60;;;;;;;;;;4381626;32;317906;-87
2023/10/20 10:47:49;;;;;;;10.57;3.72;;;;;;;;;;4373160;32;317958;-82
2023/10/20 10:50:20;;;;;;;12.60;3.28;;;;;;;;;;4381520;32;317951;-84
2023/10/20 10:52:47;;;;;;;8.88;2.75;;;;;;;;;;4369077;32;317838;-85
2023/10/20 10:55:15;;;;;;;7.78;3.08;;;;;;;;;;4382294;32;316615;-83
2023/10/20 10:57:44;;;;;;;14.40;4.22;;;;;;;;;;4374244;32;316852;-82
2023/10/20 11:00:15;;;;;;;10.30;3.78;;;;;;;;;;4383291;32;317767;-86
2023/10/20 11:02:43;;;;;;;7.68;3.15;;;;;;;;;;4368951;32;318170;-83
2023/10/20 11:05:11;;;;;;;6.78;3.47;;;;;;;;;;4383582;32;317008;-82
2023/10/20 11:07:38;;;;;;;8.45;3.20;;;;;;;;;;4373374;32;317007;-83
2023/10/20 11:10:07;;;;;;;11.12;3.33;;;;;;;;;;4383913;32;316896;-85
2023/10/20 11:12:35;;;;;;;9.13;3.22;;;;;;;;;;4373820;32;318362;-81
2023/10/20 11:15:04;;;;;;;10.77;3.53;;;;;;;;;;4381494;32;316789;-80
2023/10/20 11:17:32;;;;;;;11.82;4.05;;;;;;;;;;4372275;32;317763;-84
2023/10/20 11:19:59;;;;;;;10.32;3.58;;;;;;;;;;4384217;32;318066;-86
2023/10/20 11:22:27;;;;;;;14.65;3.62;;;;;;;;;;4382048;32;317879;-85
2023/10/20 11:24:54;;;;;;;7.78;3.45;;;;;;;;;;4371042;32;317997;-84
2023/10/20 11:27:22;;;;;;;13.75;4.53;;;;;;;;;;4381911;32;317067;-85
2023/10/20 11:29:50;;;;;;;11.02;4.28;;;;;;;;;;4373463;32;317880;-81
2023/10/20 11:32:18;;;;;;;19.50;4.80;;;;;;;;;;4382539;32;317814;-85
2023/10/20 11:34:47;;;;;;;14.43;4.37;;;;;;;;;;4370450;32;318244;-85
2023/10/20 11:37:15;;;;;;;19.92;5.10;;;;;;;;;;4382533;32;318286;-86
2023/10/20 11:39:42;;;;;;;16.15;4.65;;;;;;;;;;4371230;32;318238;-86
2023/10/20 11:42:11;;;;;;;11.85;4.75;;;;;;;;;;4369756;32;317984;-85
2023/10/20 11:44:40;;;;;;;13.23;4.75;;;;;;;;;;4372340;32;318027;-82
2023/10/20 11:47:07;;;;;;;12.65;4.12;;;;;;;;;;4381008;32;317842;-84
2023/10/20 11:49:36;;;;;;;15.30;3.90;;;;;;;;;;4373105;32;317875;-83
2023/10/20 11:52:07;;;;;;;15.48;4.12;;;;;;;;;;4384017;32;318174;-83
2023/10/20 11:54:34;;;;;;;8.07;3.30;;;;;;;;;;4372877;32;317958;-82
2023/10/20 11:57:02;;;;;;;16.12;3.75;;;;;;;;;;4379272;32;316957;-85
2023/10/20 11:59:29;;;;;;;13.38;3.80;;;;;;;;;;4384279;32;318322;-83
2023/10/20 12:01:57;;;;;;;7.47;3.25;;;;;;;;;;4369284;32;417026;-84
2023/10/20 12:04:25;;;;;;;12.93;4.45;;;;;;;;;;4384577;32;317241;-83
2023/10/20 12:06:54;;;;;;;7.90;3.47;;;;;;;;;;4370149;32;318098;-84
2023/10/20 12:09:21;;;;;;;17.50;3.80;;;;;;;;;;4384199;32;316832;-82
2023/10/20 12:11:49;;;;;;;12.43;4.43;;;;;;;;;;4373741;32;317976;-83
2023/10/20 12:14:17;;;;;;;14.63;4.85;;;;;;;;;;4387049;32;317857;-85
2023/10/20 12:16:46;;;;;;;15.43;5.75;;;;;;;;;;4370600;32;324464;-85
2023/10/20 12:19:14;;;;;;;15.63;4.62;;;;;;;;;;4384297;32;318079;-85
2023/10/20 12:21:42;;;;;;;16.50;4.28;;;;;;;;;;4371876;32;334928;-86
2023/10/20 12:24:11;;;;;;;10.13;3.97;;;;;;;;;;4384142;32;318298;-84
2023/10/20 12:26:39;;;;;;;11.82;4.18;;;;;;;;;;4371357;32;317839;-85
2023/10/20 12:29:07;;;;;;;12.00;3.75;;;;;;;;;;4392248;32;317737;-84
2023/10/20 12:31:34;;;;;;;7.62;3.55;;;;;;;;;;4370414;32;417314;-84
2023/10/20 12:34:02;;;;;;;12.68;3.83;;;;;;;;;;4382689;32;317055;-86
2023/10/20 12:36:31;;;;;;;8.48;4.07;;;;;;;;;;4371123;32;318009;-84
2023/10/20 12:39:00;;;;;;;10.00;3.60;;;;;;;;;;4381492;32;316976;-84
2023/10/20 12:41:29;;;;;;;12.32;4.12;;;;;;;;;;4349926;32;317715;-84
2023/10/20 12:43:56;;;;;;;14.30;5.43;;;;;;;;;;4378287;32;317958;-85
2023/10/20 12:46:24;;;;;;;18.12;4.93;;;;;;;;;;4366388;32;317952;-85
2023/10/20 12:48:51;;;;;;;8.88;3.95;;;;;;;;;;4381457;32;317766;-86
2023/10/20 12:51:19;;;;;;;19.67;5.50;;;;;;;;;;4370444;32;316867;-86
2023/10/20 12:53:46;;;;;;;12.32;3.35;;;;;;;;;;4382864;32;317857;-84
2023/10/20 12:56:15;;;;;;;18.73;4.03;;;;;;;;;;4372457;32;318238;-85
2023/10/20 12:58:45;;;;;;;18.45;5.12;;;;;;;;;;4381561;32;318049;-85
2023/10/20 13:01:12;;;;;;;18.23;5.00;;;;;;;;;;4370946;32;317816;-85
2023/10/20 13:03:40;;;;;;;16.17;4.22;;;;;;;;;;4382886;32;317728;-85
2023/10/20 13:06:07;;;;;;;13.25;3.83;;;;;;;;;;4381121;32;317841;-85
2023/10/20 13:08:35;;;;;;;12.95;3.72;;;;;;;;;;4366044;32;387828;-84
2023/10/20 13:11:02;;;;;;;12.55;4.03;;;;;;;;;;4381720;32;336176;-85
2023/10/20 13:13:32;;;;;;;11.65;4.25;;;;;;;;;;4357783;32;318367;-84
2023/10/20 13:16:02;;;;;;;11.75;4.10;;;;;;;;;;4380012;32;318024;-84
2023/10/20 13:18:30;;;;;;;13.55;4.15;;;;;;;;;;4369836;32;318005;-86
2023/10/20 13:20:58;;;;;;;10.50;4.37;;;;;;;;;;4381525;32;317965;-84
2023/10/20 13:23:26;;;;;;;16.20;4.40;;;;;;;;;;4370531;32;317931;-84
2023/10/20 13:25:59;;;;;;;17.00;5.45;;;;;;;;;;4382252;32;317638;-84
2023/10/20 13:28:27;;;;;;;16.48;4.22;;;;;;;;;;4369159;32;318604;-83
2023/10/20 13:31:06;;;;;;;16.27;4.68;;;;;;;;;;4382622;32;317418;-84
2023/10/20 13:33:34;;;;;;;14.45;4.07;;;;;;;;;;4368695;32;418595;-85
2023/10/20 13:36:03;;;;;;;13.45;3.97;;;;;;;;;;4381746;32;317784;-84
2023/10/20 13:38:31;;;;;;;9.40;4.28;;;;;;;;;;4368154;32;329234;-84
2023/10/20 13:40:59;;;;;;;11.50;3.72;;;;;;;;;;4381395;32;316956;-84
2023/10/20 13:43:27;;;;;;;12.20;4.40;;;;;;;;;;4370017;32;334211;-84
2023/10/20 13:45:54;;;;;;;13.35;4.25;;;;;;;;;;4382863;32;318008;-83
2023/10/20 13:48:23;;;;;;;10.20;3.60;;;;;;;;;;4368170;32;317865;-84
2023/10/20 13:50:51;;;;;;;20.05;4.43;;;;;;;;;;4381225;32;326960;-83
2023/10/20 13:53:18;;;;;;;16.25;5.43;;;;;;;;;;4371632;32;317994;-83
2023/10/20 13:55:46;;;;;;;14.73;4.32;;;;;;;;;;4382145;32;318250;-83
2023/10/20 13:58:14;;;;;;;18.67;6.50;;;;;;;;;;4370642;32;317861;-83
2023/10/20 14:00:41;;;;;;;15.00;4.20;;;;;;;;;;4389600;32;317534;-83
2023/10/20 14:03:08;;;;;;;10.20;3.25;;;;;;;;;;4384834;32;329370;-83
2023/10/20 14:05:37;;;;;;;11.52;3.42;;;;;;;;;;4394896;32;317599;-84
2023/10/20 14:08:07;;;;;;;13.52;4.47;;;;;;;;;;4397687;32;317544;-83
2023/10/20 14:10:35;;;;;;;9.70;3.37;;;;;;;;;;4377650;32;418101;-82
2023/10/20 14:13:02;;;;;;;14.20;3.53;;;;;;;;;;4384279;32;347800;-83
2023/10/20 14:15:30;;;;;;;14.38;3.55;;;;;;;;;;4372139;32;318274;-83
2023/10/20 14:17:59;;;;;;;13.50;3.58;;;;;;;;;;4371678;32;318060;-82
2023/10/20 14:20:26;;;;;;;9.27;2.83;;;;;;;;;;4356713;32;318089;-83
2023/10/20 14:22:55;;;;;;;15.13;3.30;;;;;;;;;;4385449;32;317053;-83
2023/10/20 14:25:22;;;;;;;15.80;3.50;;;;;;;;;;4372631;32;318106;-84
2023/10/20 14:27:50;;;;;;;16.27;3.70;;;;;;;;;;4384452;32;318200;-82
2023/10/20 14:30:17;;;;;;;17.30;2.92;;;;;;;;;;4373890;32;339129;-84
2023/10/20 14:32:45;;;;;;;10.52;3.22;;;;;;;;;;4384193;32;317845;-82
2023/10/20 14:35:12;;;;;;;13.30;3.00;;;;;;;;;;4374029;32;317940;-83
2023/10/20 14:37:40;;;;;;;13.38;3.15;;;;;;;;;;4382062;32;317917;-85
2023/10/20 14:40:09;;;;;;;9.88;2.47;;;;;;;;;;4384920;32;317872;-82
2023/10/20 14:42:37;;;;;;;14.90;3.45;;;;;;;;;;4367250;32;417567;-85
2023/10/20 14:45:06;;;;;;;16.85;3.53;;;;;;;;;;4383880;32;317739;-84
2023/10/20 14:47:33;;;;;;;9.68;3.22;;;;;;;;;;4371339;32;416907;-84
2023/10/20 14:50:01;;;;;;;17.40;3.58;;;;;;;;;;4382441;32;316638;-83